Time;durP1;ratioP1;P1;durP2;ratioP2;P2;SDS_P1;SDS_P2;PMS_P1;PMS_P2;Temp;Humidity;BMP_temperature;BMP_pressure;BME280_temperature;BME280_humidity;BME280_pressure;Samples;Min_cycle;Max_cycle;Signal;HPM_P1;HPM_P2
2022/04/27 00:01:23;;;;;;;;;;;22.30;38.90;;;;;;6311106;27;20277;-50
2022/04/27 00:04:25;;;;;;;;;;;22.40;39.00;;;;;;6300284;28;20068;-56
2022/04/27 00:07:27;;;;;;;;;;;22.30;38.90;;;;;;6311345;27;19938;-50
2022/04/27 00:10:28;;;;;;;;;;;22.50;39.10;;;;;;6303574;27;20823;-49
2022/04/27 00:13:30;;;;;;;;;;;22.50;39.10;;;;;;6306838;27;20118;-50
2022/04/27 00:16:32;;;;;;;;;;;22.40;39.10;;;;;;6307848;27;19939;-50
2022/04/27 00:19:33;;;;;;;;;;;22.50;39.10;;;;;;6312454;27;19927;-48
2022/04/27 00:22:36;;;;;;;;;;;22.40;39.10;;;;;;6308110;27;19966;-51
2022/04/27 00:25:37;;;;;;;;;;;22.20;39.10;;;;;;6311363;27;21028;-47
2022/04/27 00:28:39;;;;;;;;;;;22.30;39.00;;;;;;6313662;27;19931;-51
2022/04/27 00:31:41;;;;;;;;;;;22.20;39.00;;;;;;6311665;27;19924;-51
2022/04/27 00:34:42;;;;;;;;;;;22.30;39.00;;;;;;6314094;27;19935;-53
2022/04/27 00:37:43;;;;;;;;;;;22.40;39.10;;;;;;6314589;27;19923;-47
2022/04/27 00:40:45;;;;;;;;;;;22.30;39.10;;;;;;6311712;27;20438;-48
2022/04/27 00:43:48;;;;;;;;;;;22.40;39.00;;;;;;6305265;27;19932;-51
2022/04/27 00:46:50;;;;;;;;;;;22.40;39.00;;;;;;6309000;27;20045;-51
2022/04/27 00:49:52;;;;;;;;;;;22.40;39.00;;;;;;6305220;27;19932;-48
2022/04/27 00:52:53;;;;;;;;;;;22.30;39.00;;;;;;6308698;27;19924;-52
2022/04/27 00:55:55;;;;;;;;;;;22.40;39.00;;;;;;6305815;27;19965;-52
2022/04/27 00:58:56;;;;;;;;;;;22.40;39.10;;;;;;6313069;27;19941;-51
2022/04/27 01:01:58;;;;;;;;;;;22.40;39.00;;;;;;6310306;28;19927;-48
2022/04/27 01:05:00;;;;;;;;;;;22.30;39.00;;;;;;6309045;27;19964;-48
2022/04/27 01:08:02;;;;;;;;;;;22.10;38.90;;;;;;6295054;27;20046;-47
2022/04/27 01:11:03;;;;;;;;;;;22.40;39.00;;;;;;6310732;27;21707;-47
2022/04/27 01:14:09;;;;;;;;;;;22.20;39.00;;;;;;6314411;27;20099;-48
2022/04/27 01:17:12;;;;;;;;;;;22.30;39.00;;;;;;6314154;27;19938;-52
2022/04/27 01:20:13;;;;;;;;;;;22.30;39.00;;;;;;6315545;27;19934;-50
2022/04/27 01:23:15;;;;;;;;;;;22.30;39.10;;;;;;6311634;27;19931;-50
2022/04/27 01:26:17;;;;;;;;;;;22.40;39.10;;;;;;6313829;27;20739;-53
2022/04/27 01:29:19;;;;;;;;;;;22.00;38.90;;;;;;6317015;27;19950;-52
2022/04/27 01:32:20;;;;;;;;;;;22.30;39.10;;;;;;6295479;27;19932;-50
2022/04/27 01:35:22;;;;;;;;;;;21.90;38.90;;;;;;6310372;27;20007;-50
2022/04/27 01:38:24;;;;;;;;;;;22.50;39.20;;;;;;6315112;27;20038;-48
2022/04/27 01:41:26;;;;;;;;;;;22.30;39.10;;;;;;6311396;27;20117;-50
2022/04/27 01:44:27;;;;;;;;;;;22.10;39.00;;;;;;6309586;27;19946;-49
2022/04/27 01:47:28;;;;;;;;;;;22.30;39.10;;;;;;6313215;27;20816;-50
2022/04/27 01:50:30;;;;;;;;;;;22.50;39.20;;;;;;6312367;27;19930;-50
2022/04/27 01:56:49;;;;;;;;;;;22.10;39.00;;;;;;6312198;27;19928;-52
2022/04/27 01:59:50;;;;;;;;;;;22.20;39.10;;;;;;6288532;27;20767;-51
2022/04/27 02:02:52;;;;;;;;;;;22.20;39.10;;;;;;6305043;27;20888;-50
2022/04/27 02:05:53;;;;;;;;;;;22.20;39.10;;;;;;6307304;27;20549;-51
2022/04/27 02:08:58;;;;;;;;;;;22.20;39.10;;;;;;6304031;27;19960;-47
2022/04/27 02:12:04;;;;;;;;;;;22.20;39.10;;;;;;6306666;27;20367;-49
2022/04/27 02:15:09;;;;;;;;;;;22.10;39.00;;;;;;6307298;27;20014;-52
2022/04/27 02:18:13;;;;;;;;;;;22.30;39.10;;;;;;6306208;27;20711;-52
2022/04/27 02:21:14;;;;;;;;;;;22.20;39.10;;;;;;6306231;27;19928;-49
2022/04/27 02:24:16;;;;;;;;;;;22.20;39.00;;;;;;6303777;27;20410;-49
2022/04/27 02:27:19;;;;;;;;;;;22.20;39.10;;;;;;6312278;27;20043;-50
2022/04/27 02:30:20;;;;;;;;;;;22.20;39.10;;;;;;6311873;27;20412;-50
2022/04/27 02:33:22;;;;;;;;;;;22.10;39.10;;;;;;6313036;27;20927;-53
2022/04/27 02:36:24;;;;;;;;;;;22.20;39.10;;;;;;6313133;27;19938;-50
2022/04/27 02:39:26;;;;;;;;;;;22.10;39.10;;;;;;6313165;27;20848;-52
2022/04/27 02:42:28;;;;;;;;;;;22.20;39.10;;;;;;6313016;27;20000;-53
2022/04/27 02:45:29;;;;;;;;;;;22.00;39.00;;;;;;6313252;28;19931;-52
2022/04/27 02:48:32;;;;;;;;;;;22.30;39.20;;;;;;6311794;27;20806;-52
2022/04/27 02:54:52;;;;;;;;;;;22.00;39.00;;;;;;6299473;28;19928;-50
2022/04/27 02:57:53;;;;;;;;;;;22.00;39.00;;;;;;6315455;27;19931;-48
2022/04/27 03:00:57;;;;;;;;;;;22.10;39.10;;;;;;6311324;27;19935;-49
2022/04/27 03:03:59;;;;;;;;;;;22.00;39.00;;;;;;6310030;27;19927;-46
2022/04/27 03:07:01;;;;;;;;;;;22.10;39.10;;;;;;6312132;27;20956;-53
2022/04/27 03:10:03;;;;;;;;;;;22.10;39.10;;;;;;6314917;27;19995;-53
2022/04/27 03:13:06;;;;;;;;;;;22.10;39.10;;;;;;6308764;27;20042;-50
2022/04/27 03:16:08;;;;;;;;;;;22.10;39.70;;;;;;6310382;27;20827;-51
2022/04/27 03:19:10;;;;;;;;;;;21.90;39.00;;;;;;6317340;27;20655;-51
2022/04/27 03:22:12;;;;;;;;;;;22.10;39.00;;;;;;6318865;27;19937;-50
2022/04/27 03:25:16;;;;;;;;;;;22.10;39.00;;;;;;6317885;27;20041;-52
2022/04/27 03:28:18;;;;;;;;;;;22.00;39.00;;;;;;6316501;27;19938;-51
2022/04/27 03:31:20;;;;;;;;;;;22.00;39.00;;;;;;6315819;27;19931;-51
2022/04/27 03:34:22;;;;;;;;;;;22.10;39.10;;;;;;6317386;27;20029;-51
2022/04/27 03:37:27;;;;;;;;;;;22.00;39.00;;;;;;6302182;28;19924;-52
2022/04/27 03:40:30;;;;;;;;;;;21.90;39.00;;;;;;6317475;27;19931;-48
2022/04/27 03:43:34;;;;;;;;;;;21.90;39.00;;;;;;6310454;27;19939;-49
2022/04/27 03:46:35;;;;;;;;;;;22.00;39.10;;;;;;6307510;27;19923;-51
2022/04/27 03:49:51;;;;;;;;;;;21.90;39.00;;;;;;6315576;27;19931;-49
2022/04/27 03:52:54;;;;;;;;;;;22.00;39.00;;;;;;6313005;27;20822;-52
2022/04/27 03:56:00;;;;;;;;;;;21.80;38.90;;;;;;6314464;27;19935;-50
2022/04/27 03:59:05;;;;;;;;;;;22.00;39.00;;;;;;6313235;27;19960;-52
2022/04/27 04:02:07;;;;;;;;;;;21.90;38.90;;;;;;6302519;27;19938;-50
2022/04/27 04:05:09;;;;;;;;;;;21.80;38.90;;;;;;6305981;27;20850;-54
2022/04/27 04:08:11;;;;;;;;;;;22.00;39.00;;;;;;6306077;27;19968;-52
2022/04/27 04:11:13;;;;;;;;;;;22.00;39.00;;;;;;6311772;28;19927;-52
2022/04/27 04:14:36;;;;;;;;;;;21.90;39.00;;;;;;6310930;28;20837;-51
2022/04/27 04:17:58;;;;;;;;;;;21.80;38.90;;;;;;6309644;27;19931;-53
2022/04/27 04:21:06;;;;;;;;;;;21.90;39.00;;;;;;6303714;27;19932;-51
2022/04/27 04:24:17;;;;;;;;;;;21.90;39.00;;;;;;6309675;28;19981;-51
2022/04/27 04:30:40;;;;;;;;;;;21.80;39.00;;;;;;6308648;27;19928;-49
2022/04/27 04:33:59;;;;;;;;;;;21.90;38.90;;;;;;6310365;27;20111;-50
2022/04/27 04:37:01;;;;;;;;;;;22.00;39.00;;;;;;6309953;28;19927;-49
2022/04/27 04:40:04;;;;;;;;;;;21.90;38.90;;;;;;6309384;27;19930;-48
2022/04/27 04:43:07;;;;;;;;;;;21.60;38.80;;;;;;6306532;27;25754;-50
2022/04/27 04:46:09;;;;;;;;;;;21.80;38.90;;;;;;6307176;27;19927;-48
2022/04/27 04:49:29;;;;;;;;;;;21.70;38.80;;;;;;6303703;28;19932;-52
2022/04/27 04:52:47;;;;;;;;;;;21.80;38.90;;;;;;6305189;27;20763;-48
2022/04/27 04:55:59;;;;;;;;;;;22.00;38.90;;;;;;6305343;27;19928;-51
2022/04/27 04:59:20;;;;;;;;;;;21.80;38.80;;;;;;6301438;27;19924;-49
2022/04/27 05:02:39;;;;;;;;;;;21.80;38.80;;;;;;6305925;27;19927;-51
2022/04/27 05:05:59;;;;;;;;;;;21.90;38.90;;;;;;6302160;27;21083;-49
2022/04/27 05:09:21;;;;;;;;;;;21.70;38.80;;;;;;6300440;27;19997;-47
2022/04/27 05:12:40;;;;;;;;;;;21.80;38.80;;;;;;6288412;28;20781;-49
2022/04/27 05:15:51;;;;;;;;;;;21.70;38.80;;;;;;6302125;27;20051;-50
2022/04/27 05:19:12;;;;;;;;;;;21.80;38.80;;;;;;6303008;27;21566;-50
2022/04/27 05:22:35;;;;;;;;;;;21.70;38.80;;;;;;6300320;27;20013;-55
2022/04/27 05:25:56;;;;;;;;;;;21.70;38.80;;;;;;6301640;28;20789;-51
2022/04/27 05:32:40;;;;;;;;;;;21.70;38.80;;;;;;6302437;27;20034;-50
2022/04/27 05:36:03;;;;;;;;;;;21.70;39.40;;;;;;6281287;27;21011;-49
2022/04/27 05:39:14;;;;;;;;;;;21.70;38.70;;;;;;6292276;27;19932;-50
2022/04/27 05:42:26;;;;;;;;;;;21.70;38.70;;;;;;6293906;27;19935;-51
2022/04/27 05:45:38;;;;;;;;;;;21.70;38.70;;;;;;6296525;27;19931;-49
2022/04/27 05:48:49;;;;;;;;;;;21.80;38.60;;;;;;6296236;27;19934;-48
2022/04/27 05:52:09;;;;;;;;;;;21.80;38.50;;;;;;6290884;27;19935;-49
2022/04/27 05:55:27;;;;;;;;;;;21.80;38.50;;;;;;6299927;27;19935;-49
2022/04/27 05:58:41;;;;;;;;;;;21.70;38.50;;;;;;6292683;27;19931;-49
2022/04/27 06:01:51;;;;;;;;;;;21.90;38.50;;;;;;6287787;27;20738;-49
2022/04/27 06:04:58;;;;;;;;;;;21.90;38.40;;;;;;6286648;28;19930;-51
2022/04/27 06:07:59;;;;;;;;;;;21.90;38.30;;;;;;6277444;27;19939;-49
2022/04/27 06:11:01;;;;;;;;;;;21.90;38.30;;;;;;6285387;27;19932;-51
2022/04/27 06:14:04;;;;;;;;;;;21.80;38.20;;;;;;6279234;27;20047;-50
2022/04/27 06:17:17;;;;;;;;;;;22.00;38.20;;;;;;6281889;27;21199;-53
2022/04/27 06:20:19;;;;;;;;;;;22.00;38.10;;;;;;6280200;27;21533;-49
2022/04/27 06:23:21;;;;;;;;;;;22.00;38.10;;;;;;6275322;27;20694;-47
2022/04/27 06:26:23;;;;;;;;;;;21.90;38.00;;;;;;6275922;27;19928;-47
2022/04/27 06:29:26;;;;;;;;;;;22.10;38.00;;;;;;6263729;27;19970;-47
2022/04/27 06:32:29;;;;;;;;;;;22.20;38.10;;;;;;6242689;27;19932;-46
2022/04/27 06:35:35;;;;;;;;;;;22.20;38.00;;;;;;6240093;27;19931;-50
2022/04/27 06:38:44;;;;;;;;;;;22.20;38.00;;;;;;6227892;27;19931;-46
2022/04/27 06:42:02;;;;;;;;;;;22.20;38.00;;;;;;6235661;27;19931;-49
2022/04/27 06:45:19;;;;;;;;;;;22.10;37.90;;;;;;6230301;27;20952;-51
2022/04/27 06:48:39;;;;;;;;;;;22.30;37.90;;;;;;6209389;27;19939;-47
2022/04/27 06:52:00;;;;;;;;;;;22.30;37.90;;;;;;6211334;27;22567;-50
2022/04/27 06:55:19;;;;;;;;;;;22.30;37.80;;;;;;6188116;27;19935;-49
2022/04/27 06:58:39;;;;;;;;;;;22.40;37.80;;;;;;6172945;27;19931;-50
2022/04/27 07:01:54;;;;;;;;;;;22.40;37.80;;;;;;6158571;27;20106;-50
2022/04/27 07:04:59;;;;;;;;;;;22.30;37.90;;;;;;6121989;27;19931;-51
2022/04/27 07:08:02;;;;;;;;;;;22.40;37.80;;;;;;6110135;27;20004;-46
2022/04/27 07:11:03;;;;;;;;;;;22.30;37.70;;;;;;6151182;27;19932;-52
2022/04/27 07:14:05;;;;;;;;;;;22.30;37.80;;;;;;6128286;27;20119;-47
2022/04/27 07:17:06;;;;;;;;;;;22.30;37.60;;;;;;6127314;27;20001;-48
2022/04/27 07:20:09;;;;;;;;;;;22.30;37.60;;;;;;6150782;27;20011;-47
2022/04/27 07:23:11;;;;;;;;;;;22.50;37.70;;;;;;6123053;27;20058;-46
2022/04/27 07:26:13;;;;;;;;;;;22.60;37.70;;;;;;6119324;27;21625;-50
2022/04/27 07:29:14;;;;;;;;;;;22.60;37.70;;;;;;6117262;27;20082;-46
2022/04/27 07:32:20;;;;;;;;;;;22.80;37.80;;;;;;6078367;27;19931;-48
2022/04/27 07:35:22;;;;;;;;;;;22.50;37.50;;;;;;6054666;27;20315;-47
2022/04/27 07:38:24;;;;;;;;;;;22.70;37.60;;;;;;6085171;27;20003;-47
2022/04/27 07:41:26;;;;;;;;;;;22.80;37.60;;;;;;6064611;27;20058;-44
2022/04/27 07:44:27;;;;;;;;;;;22.70;37.60;;;;;;6087445;27;19939;-48
2022/04/27 07:47:36;;;;;;;;;;;22.60;37.40;;;;;;6093038;27;19931;-49
2022/04/27 07:50:39;;;;;;;;;;;22.80;37.40;;;;;;6073161;27;21463;-48
2022/04/27 07:53:41;;;;;;;;;;;22.90;37.40;;;;;;6095948;27;19938;-48
2022/04/27 07:56:43;;;;;;;;;;;22.90;37.40;;;;;;6099173;27;21503;-47
2022/04/27 07:59:44;;;;;;;;;;;22.90;37.40;;;;;;6081764;27;23704;-51
2022/04/27 08:02:47;;;;;;;;;;;22.90;37.30;;;;;;6082664;27;19994;-50
2022/04/27 08:05:49;;;;;;;;;;;23.00;37.30;;;;;;6100813;27;19931;-44
2022/04/27 08:08:51;;;;;;;;;;;22.90;37.20;;;;;;6110209;27;19981;-55
2022/04/27 08:11:54;;;;;;;;;;;23.10;37.40;;;;;;6097068;27;20039;-51
2022/04/27 08:14:55;;;;;;;;;;;23.10;37.40;;;;;;6102960;27;19938;-51
2022/04/27 08:17:59;;;;;;;;;;;23.10;37.40;;;;;;6100969;27;19932;-46
2022/04/27 08:21:15;;;;;;;;;;;23.10;37.30;;;;;;6074958;27;19931;-50
2022/04/27 08:24:19;;;;;;;;;;;23.20;37.30;;;;;;6088699;27;19999;-50
2022/04/27 08:27:20;;;;;;;;;;;23.20;37.20;;;;;;6057921;27;20235;-49
2022/04/27 08:30:22;;;;;;;;;;;23.20;37.20;;;;;;6061705;27;22218;-53
2022/04/27 08:33:24;;;;;;;;;;;23.30;37.20;;;;;;6053440;27;19971;-48
2022/04/27 08:36:26;;;;;;;;;;;23.40;36.60;;;;;;6064330;27;19931;-48
2022/04/27 08:39:33;;;;;;;;;;;23.30;37.20;;;;;;6059164;27;23056;-50
2022/04/27 08:42:34;;;;;;;;;;;23.30;37.20;;;;;;6091797;27;19978;-49
2022/04/27 08:45:36;;;;;;;;;;;23.40;37.20;;;;;;6100366;27;20000;-49
2022/04/27 08:48:38;;;;;;;;;;;23.20;37.30;;;;;;6113484;27;19939;-46
2022/04/27 08:51:40;;;;;;;;;;;23.30;37.30;;;;;;6077778;27;19931;-46
2022/04/27 08:54:48;;;;;;;;;;;23.30;37.20;;;;;;6069744;27;19932;-50
2022/04/27 08:57:52;;;;;;;;;;;23.40;37.30;;;;;;6103381;27;20855;-52
2022/04/27 09:00:54;;;;;;;;;;;23.40;37.20;;;;;;6093309;27;19932;-47
2022/04/27 09:04:07;;;;;;;;;;;23.40;37.20;;;;;;6067162;27;19932;-49
2022/04/27 09:07:16;;;;;;;;;;;23.40;37.10;;;;;;6066422;27;21740;-46
2022/04/27 09:10:19;;;;;;;;;;;23.40;37.20;;;;;;6093979;27;20799;-47
2022/04/27 09:13:30;;;;;;;;;;;23.40;37.20;;;;;;6127342;27;20381;-50
2022/04/27 09:23:07;;;;;;;;;;;23.40;37.10;;;;;;6121093;27;21239;-53
2022/04/27 09:26:18;;;;;;;;;;;23.40;37.10;;;;;;6113958;27;19931;-51
2022/04/27 09:29:23;;;;;;;;;;;23.50;37.10;;;;;;6083616;27;20052;-51
2022/04/27 09:32:25;;;;;;;;;;;23.60;37.10;;;;;;6062073;27;19938;-50
2022/04/27 09:35:29;;;;;;;;;;;23.50;37.10;;;;;;6103188;27;23776;-54
2022/04/27 09:38:39;;;;;;;;;;;23.60;37.10;;;;;;6084145;27;20075;-54
2022/04/27 09:41:42;;;;;;;;;;;23.60;37.30;;;;;;6070654;27;19931;-53
2022/04/27 09:44:44;;;;;;;;;;;23.60;37.10;;;;;;6103110;27;20462;-52
2022/04/27 09:47:53;;;;;;;;;;;23.50;37.00;;;;;;6124337;27;21210;-48
2022/04/27 09:50:58;;;;;;;;;;;23.60;37.10;;;;;;6114665;27;19931;-49
2022/04/27 09:54:00;;;;;;;;;;;23.70;37.10;;;;;;6126342;27;19931;-48
2022/04/27 09:57:03;;;;;;;;;;;23.60;37.10;;;;;;6115456;27;19968;-49
2022/04/27 10:00:05;;;;;;;;;;;23.60;37.10;;;;;;6100201;27;19932;-52
2022/04/27 10:03:13;;;;;;;;;;;23.70;37.20;;;;;;6090834;27;22966;-51
2022/04/27 10:06:15;;;;;;;;;;;23.70;37.10;;;;;;6112842;27;22295;-49
2022/04/27 10:09:17;;;;;;;;;;;23.60;37.00;;;;;;6137496;27;19968;-48
2022/04/27 10:12:40;;;;;;;;;;;23.70;37.20;;;;;;6099023;27;20018;-51
2022/04/27 10:15:42;;;;;;;;;;;23.70;37.10;;;;;;6114576;27;19938;-53
2022/04/27 10:18:44;;;;;;;;;;;23.80;37.20;;;;;;6119525;27;20012;-48
2022/04/27 10:21:56;;;;;;;;;;;23.60;37.10;;;;;;6135665;27;21042;-50
2022/04/27 10:25:04;;;;;;;;;;;23.70;37.10;;;;;;6134930;27;19938;-52
2022/04/27 10:28:16;;;;;;;;;;;23.70;37.20;;;;;;6170072;27;19974;-54
2022/04/27 10:31:29;;;;;;;;;;;23.70;37.20;;;;;;6151747;27;20055;-49
2022/04/27 10:34:31;;;;;;;;;;;23.70;37.10;;;;;;6125761;27;20023;-50
2022/04/27 10:37:44;;;;;;;;;;;23.70;37.30;;;;;;6138939;27;19931;-53
2022/04/27 10:40:45;;;;;;;;;;;23.70;37.20;;;;;;6133457;27;19931;-51
2022/04/27 10:43:47;;;;;;;;;;;23.70;37.20;;;;;;6163818;27;20182;-52
2022/04/27 10:46:49;;;;;;;;;;;23.70;37.20;;;;;;6172225;27;19931;-51
2022/04/27 10:50:16;;;;;;;;;;;23.80;37.30;;;;;;6179967;27;19960;-52
2022/04/27 10:53:19;;;;;;;;;;;23.70;37.20;;;;;;6183769;27;19932;-52
2022/04/27 10:56:32;;;;;;;;;;;23.70;37.20;;;;;;6180425;27;20034;-50
2022/04/27 10:59:48;;;;;;;;;;;23.70;37.20;;;;;;6173801;27;19931;-49
2022/04/27 11:02:53;;;;;;;;;;;23.70;37.20;;;;;;6140242;27;19932;-51
2022/04/27 11:05:57;;;;;;;;;;;23.70;37.20;;;;;;6195646;27;20198;-50
2022/04/27 11:09:04;;;;;;;;;;;23.80;37.20;;;;;;6191794;27;22050;-52
2022/04/27 11:12:08;;;;;;;;;;;23.80;37.20;;;;;;6161639;27;19932;-50
2022/04/27 11:15:11;;;;;;;;;;;23.80;37.20;;;;;;6156442;27;20032;-48
2022/04/27 11:18:14;;;;;;;;;;;23.70;37.10;;;;;;6178222;27;19938;-55
2022/04/27 11:21:17;;;;;;;;;;;23.90;37.20;;;;;;6144434;27;22325;-52
2022/04/27 11:24:20;;;;;;;;;;;23.80;37.20;;;;;;6162037;27;19931;-50
2022/04/27 11:27:23;;;;;;;;;;;23.80;37.20;;;;;;6170461;27;19931;-50
2022/04/27 11:30:26;;;;;;;;;;;23.80;37.10;;;;;;6160147;27;20066;-50
2022/04/27 11:33:28;;;;;;;;;;;23.80;37.10;;;;;;6179197;27;19978;-48
2022/04/27 11:36:29;;;;;;;;;;;23.70;37.00;;;;;;6170228;27;20050;-53
2022/04/27 11:39:31;;;;;;;;;;;23.80;37.10;;;;;;6189768;27;19938;-50
2022/04/27 11:42:32;;;;;;;;;;;23.90;37.30;;;;;;6168671;27;20165;-48
2022/04/27 11:45:34;;;;;;;;;;;23.80;37.10;;;;;;6186923;27;19986;-48
2022/04/27 11:48:36;;;;;;;;;;;23.80;37.20;;;;;;6144868;27;20033;-47
2022/04/27 11:51:38;;;;;;;;;;;23.80;37.10;;;;;;6142469;27;19932;-47
2022/04/27 11:54:39;;;;;;;;;;;23.80;37.10;;;;;;6131049;27;19938;-52
2022/04/27 11:57:43;;;;;;;;;;;23.90;37.20;;;;;;6136504;27;19935;-46
2022/04/27 12:00:44;;;;;;;;;;;23.90;37.10;;;;;;6096996;27;21631;-47
2022/04/27 12:03:49;;;;;;;;;;;23.90;37.10;;;;;;6094123;27;19931;-51
2022/04/27 12:06:50;;;;;;;;;;;23.90;37.00;;;;;;6113082;27;19932;-48
2022/04/27 12:09:55;;;;;;;;;;;23.90;37.10;;;;;;6106030;27;26290;-48
2022/04/27 12:13:00;;;;;;;;;;;23.90;37.10;;;;;;6090916;27;21225;-49
2022/04/27 12:16:02;;;;;;;;;;;23.90;37.00;;;;;;6083629;27;20065;-49
2022/04/27 12:19:04;;;;;;;;;;;24.00;37.20;;;;;;6105979;27;20040;-48
2022/04/27 12:22:13;;;;;;;;;;;24.00;37.00;;;;;;6099669;27;20488;-46
2022/04/27 12:25:14;;;;;;;;;;;23.70;36.90;;;;;;6102964;27;19989;-51
2022/04/27 12:28:17;;;;;;;;;;;24.10;37.00;;;;;;6093774;27;21295;-46
2022/04/27 12:31:20;;;;;;;;;;;24.00;36.90;;;;;;6090099;27;20032;-56
2022/04/27 12:37:39;;;;;;;;;;;24.10;37.00;;;;;;6086141;27;20333;-46
2022/04/27 12:40:42;;;;;;;;;;;24.10;36.90;;;;;;6084864;27;19978;-52
2022/04/27 12:43:48;;;;;;;;;;;24.20;36.90;;;;;;6132249;27;20015;-47
2022/04/27 12:47:11;;;;;;;;;;;24.10;36.80;;;;;;6055025;27;19931;-46
2022/04/27 12:50:13;;;;;;;;;;;24.20;36.80;;;;;;6110287;27;19931;-46
2022/04/27 12:53:16;;;;;;;;;;;24.30;36.90;;;;;;6114854;27;19932;-48
2022/04/27 12:56:20;;;;;;;;;;;24.30;36.90;;;;;;6075832;27;20196;-49
2022/04/27 12:59:22;;;;;;;;;;;24.30;36.90;;;;;;6093377;27;19938;-47
2022/04/27 13:02:24;;;;;;;;;;;24.30;36.80;;;;;;6099576;27;19931;-46
2022/04/27 13:05:26;;;;;;;;;;;24.30;36.80;;;;;;6101432;27;19931;-48
2022/04/27 13:08:28;;;;;;;;;;;24.30;36.70;;;;;;6067097;27;22774;-45
2022/04/27 13:14:46;;;;;;;;;;;24.30;36.90;;;;;;6074365;27;22456;-49
2022/04/27 13:20:22;;;;;;;1.42;1.20;;;24.10;51.70;;;;;;6155135;27;20484;-56
2022/04/27 13:23:23;;;;;;;1.27;1.13;;;24.30;36.10;;;;;;6151130;27;21439;-52
2022/04/27 13:26:25;;;;;;;1.30;1.13;;;24.50;35.40;;;;;;6130529;27;20038;-52
2022/04/27 13:29:27;;;;;;;2.03;1.30;;;24.30;34.90;;;;;;6143137;27;20068;-53
2022/04/27 13:32:29;;;;;;;2.38;1.35;;;24.40;34.70;;;;;;6140353;27;20115;-54
2022/04/27 13:35:31;;;;;;;2.75;2.03;;;24.40;34.70;;;;;;6123090;27;20059;-53
2022/04/27 13:38:33;;;;;;;2.83;1.73;;;24.40;34.50;;;;;;6130875;27;20178;-50
2022/04/27 13:41:35;;;;;;;3.30;1.88;;;24.40;34.50;;;;;;6125054;27;20045;-50
2022/04/27 13:44:37;;;;;;;1.88;1.65;;;24.40;34.40;;;;;;6157970;27;21651;-51
2022/04/27 13:47:39;;;;;;;1.50;1.25;;;24.40;34.30;;;;;;6137904;27;20046;-53
2022/04/27 13:50:42;;;;;;;5.65;2.60;;;24.30;34.40;;;;;;6109463;27;20042;-52
2022/04/27 13:53:44;;;;;;;3.05;2.28;;;24.40;34.40;;;;;;6140959;27;20046;-49
2022/04/27 13:56:46;;;;;;;3.33;2.05;;;24.30;34.30;;;;;;6136212;27;20146;-50
2022/04/27 13:59:48;;;;;;;1.98;1.30;;;24.30;34.00;;;;;;6107524;27;20137;-51
2022/04/27 14:02:50;;;;;;;1.50;1.40;;;23.80;34.20;;;;;;6126306;27;20050;-51
2022/04/27 14:05:53;;;;;;;2.00;1.00;;;24.40;34.40;;;;;;6074987;27;20071;-54
2022/04/27 14:08:55;;;;;;;2.03;1.20;;;24.30;34.30;;;;;;6085279;27;20062;-48
2022/04/27 14:15:09;;;;;;;1.38;1.27;;;24.40;34.40;;;;;;6110134;27;20880;-49
2022/04/27 14:18:10;;;;;;;1.17;1.00;;;24.40;34.30;;;;;;6144620;27;20050;-54
2022/04/27 14:21:13;;;;;;;3.03;2.13;;;24.50;34.30;;;;;;6124759;27;20043;-50
2022/04/27 14:24:15;;;;;;;3.40;2.08;;;24.50;34.30;;;;;;6117529;27;20039;-50
2022/04/27 14:27:16;;;;;;;3.00;2.40;;;24.50;34.20;;;;;;6142563;27;20248;-52
2022/04/27 14:30:19;;;;;;;4.65;2.00;;;24.50;34.10;;;;;;6122610;27;20269;-48
2022/04/27 14:33:21;;;;;;;2.63;1.70;;;24.50;34.10;;;;;;6103968;27;20050;-48
2022/04/27 14:36:24;;;;;;;1.60;1.25;;;24.40;34.10;;;;;;6107533;27;20772;-51
2022/04/27 14:39:26;;;;;;;1.67;1.38;;;24.50;34.20;;;;;;6091322;27;21161;-55
2022/04/27 14:42:29;;;;;;;1.77;1.10;;;24.50;34.20;;;;;;6096953;27;20823;-52
2022/04/27 14:45:32;;;;;;;1.40;1.08;;;24.50;34.30;;;;;;6085847;27;21216;-51
2022/04/27 14:48:34;;;;;;;1.13;0.88;;;24.50;34.10;;;;;;6106358;27;20115;-51
2022/04/27 14:51:37;;;;;;;1.75;1.42;;;24.60;34.80;;;;;;6116628;27;20166;-51
2022/04/27 14:54:38;;;;;;;2.85;1.60;;;24.50;34.00;;;;;;6130369;27;20739;-50
2022/04/27 14:57:41;;;;;;;3.65;2.67;;;24.60;34.10;;;;;;6093401;27;20160;-56
2022/04/27 15:00:44;;;;;;;2.65;1.77;;;24.60;34.10;;;;;;6048208;27;20039;-53
2022/04/27 15:03:45;;;;;;;1.50;1.38;;;24.60;33.90;;;;;;6017763;27;20054;-48
2022/04/27 15:06:48;;;;;;;3.35;1.67;;;24.50;33.80;;;;;;6099946;27;20050;-50
2022/04/27 15:09:50;;;;;;;2.35;1.83;;;24.50;33.80;;;;;;6102234;27;20035;-48
2022/04/27 15:12:51;;;;;;;3.05;1.50;;;24.50;33.80;;;;;;6135025;27;21262;-51
2022/04/27 15:15:53;;;;;;;2.00;1.80;;;24.50;33.80;;;;;;6124808;27;20063;-51
2022/04/27 15:18:56;;;;;;;2.03;1.80;;;24.60;33.80;;;;;;6118208;27;20043;-55
2022/04/27 15:25:15;;;;;;;1.20;1.10;;;24.50;33.60;;;;;;6142776;27;22076;-48
2022/04/27 15:28:17;;;;;;;1.50;1.20;;;24.50;33.70;;;;;;6138856;27;20047;-52
2022/04/27 15:31:19;;;;;;;1.65;1.20;;;24.50;33.70;;;;;;6138604;27;20055;-52
2022/04/27 15:34:21;;;;;;;1.40;1.15;;;24.50;33.70;;;;;;6143435;27;24965;-51
2022/04/27 15:37:23;;;;;;;1.30;1.20;;;24.50;33.70;;;;;;6123013;27;20048;-50
2022/04/27 15:40:26;;;;;;;1.80;1.40;;;24.50;33.80;;;;;;6124534;27;20099;-50
2022/04/27 15:43:27;;;;;;;3.05;2.33;;;24.50;33.90;;;;;;6113974;27;20085;-47
2022/04/27 15:46:46;;;;;;;2.00;1.50;;;24.50;33.80;;;;;;6151409;27;20109;-52
2022/04/27 15:49:48;;;;;;;3.67;1.80;;;24.60;33.90;;;;;;6157603;27;20232;-50
2022/04/27 15:52:51;;;;;;;1.85;1.60;;;24.50;33.80;;;;;;6138972;27;20070;-53
2022/04/27 15:55:53;;;;;;;1.30;1.10;;;24.50;33.80;;;;;;6143712;27;21230;-50
2022/04/27 15:58:54;;;;;;;2.25;1.35;;;24.50;33.80;;;;;;6131642;27;20162;-52
2022/04/27 16:01:57;;;;;;;1.52;1.38;;;24.50;33.90;;;;;;6116849;27;20054;-50
2022/04/27 16:04:59;;;;;;;1.17;1.00;;;24.50;33.80;;;;;;6138055;27;20058;-52
2022/04/27 16:08:01;;;;;;;2.28;1.60;;;24.50;33.90;;;;;;6153079;27;20044;-51
2022/04/27 16:11:03;;;;;;;1.10;1.00;;;24.40;33.90;;;;;;6152962;27;20085;-50
2022/04/27 16:14:05;;;;;;;9.43;1.75;;;24.50;34.00;;;;;;6177295;27;20051;-50
2022/04/27 16:17:07;;;;;;;1.42;1.20;;;24.40;33.90;;;;;;6147011;27;20047;-51
2022/04/27 16:20:09;;;;;;;1.35;1.10;;;24.40;33.90;;;;;;6173475;27;20140;-52
2022/04/27 16:23:11;;;;;;;1.40;1.30;;;24.50;34.00;;;;;;6182219;27;20071;-57
2022/04/27 16:26:16;;;;;;;1.20;1.00;;;24.30;33.90;;;;;;6169755;27;20153;-51
2022/04/27 16:29:18;;;;;;;1.10;1.00;;;24.50;34.00;;;;;;6203690;27;20154;-51
2022/04/27 16:32:20;;;;;;;1.20;1.10;;;24.40;33.90;;;;;;6190726;27;20330;-48
2022/04/27 16:35:22;;;;;;;1.20;1.10;;;24.40;34.00;;;;;;6186003;27;20344;-50
2022/04/27 16:38:24;;;;;;;1.42;1.00;;;24.40;34.00;;;;;;6207953;27;21060;-47
2022/04/27 16:41:26;;;;;;;1.05;0.95;;;24.40;34.10;;;;;;6213188;27;20158;-49
2022/04/27 16:44:28;;;;;;;1.20;1.10;;;24.50;34.20;;;;;;6221758;27;20072;-51
2022/04/27 16:47:30;;;;;;;1.17;1.08;;;24.40;34.20;;;;;;6226787;27;20046;-48
2022/04/27 16:50:31;;;;;;;1.45;1.20;;;24.40;34.20;;;;;;6243403;27;20654;-51
2022/04/27 16:53:34;;;;;;;1.25;1.15;;;24.40;34.20;;;;;;6230728;27;20998;-51
2022/04/27 16:56:38;;;;;;;1.20;1.05;;;24.50;34.40;;;;;;6234314;27;20273;-50
2022/04/27 16:59:40;;;;;;;1.15;1.02;;;24.40;34.40;;;;;;6220281;27;20591;-50
2022/04/27 17:02:43;;;;;;;1.50;1.20;;;24.50;34.40;;;;;;6239864;27;20698;-49
2022/04/27 17:05:45;;;;;;;1.30;1.02;;;24.40;34.40;;;;;;6234818;27;20372;-50
2022/04/27 17:08:47;;;;;;;1.52;1.05;;;24.40;34.40;;;;;;6246050;27;20640;-49
2022/04/27 17:11:49;;;;;;;1.30;1.20;;;24.40;34.40;;;;;;6244679;27;20062;-50
2022/04/27 17:14:50;;;;;;;1.20;1.10;;;24.30;34.40;;;;;;6243229;27;20421;-50
2022/04/27 17:17:52;;;;;;;1.42;1.33;;;24.40;34.50;;;;;;6249364;27;20174;-51
2022/04/27 17:20:54;;;;;;;1.10;0.90;;;24.30;34.40;;;;;;6250047;27;20086;-49
2022/04/27 17:23:56;;;;;;;1.25;1.10;;;24.50;34.60;;;;;;6243397;27;21064;-50
2022/04/27 17:30:17;;;;;;;1.23;1.13;;;24.40;34.80;;;;;;6236933;27;20171;-52
2022/04/27 17:33:20;;;;;;;1.30;1.20;;;24.30;34.70;;;;;;6246315;27;20197;-52
2022/04/27 17:36:22;;;;;;;1.13;1.02;;;24.30;34.80;;;;;;6244822;27;20283;-47
2022/04/27 17:39:24;;;;;;;1.48;1.23;;;24.30;34.80;;;;;;6244722;27;20322;-48
2022/04/27 17:45:40;;;;;;;1.00;0.90;;;24.30;35.00;;;;;;6246617;27;20268;-52
2022/04/27 17:48:43;;;;;;;1.00;0.90;;;24.30;35.00;;;;;;6259650;27;20116;-50
2022/04/27 17:51:45;;;;;;;1.15;0.93;;;24.30;35.00;;;;;;6275327;27;20146;-52
2022/04/27 17:54:47;;;;;;;1.30;1.10;;;24.40;35.20;;;;;;6275216;27;20957;-54
2022/04/27 17:57:49;;;;;;;1.33;1.20;;;24.30;35.10;;;;;;6256434;27;20191;-49
2022/04/27 18:00:52;;;;;;;1.20;1.10;;;24.20;35.00;;;;;;6288337;27;21527;-53
2022/04/27 18:03:54;;;;;;;1.08;0.95;;;24.20;35.10;;;;;;6265225;27;20046;-53